Station: Cairns Racecourse  

  Atmospheric Gas Attenuation - ITU Rec 676-11   ----------------- dB/100km -----------------
Date Time Temp RH % AH g/m3 Dew Point Wind Direction Speed kph Gust kph Barometer mB Rainfall Since 9am 24GHz 47GHz 76GHz 122GHz 134GHz 241GHz
07/05 10:50 27.4 73 19.21 22.3 7 9 1013.9 0 41.1 39.3 75.8 200.5 220.9 767.7
07/05 10:40 26.8 72 18.33 21.3 11 15 1014.1 0 39.3 38.0 72.4 191.4 209.6 728.0
07/05 10:30 26.5 73 18.27 21.3 15 24 1014.4 0 39.2 38.0 72.4 191.5 209.5 728.0
07/05 10:20 26.7 73 18.48 21.5 15 19 1014.4 0 39.7 38.3 73.2 193.5 212.1 736.9
07/05 10:10 26 75 18.26 21.2 17 20 1014.4 0 39.3 38.2 72.8 192.6 210.8 732.2
07/05 10:00 26.2 76 18.71 21.6 15 22 1014.6 0 40.2 39.0 74.7 197.6 217.0 753.9
07/05 09:50 25.7 78 18.67 21.6 13 17 1014.5 0 40.2 39.1 75.0 198.4 217.8 756.7
07/05 09:40 25.7 82 19.63 22.4 11 15 1014.5 0 42.2 41.0 79.5 210.4 232.6 808.0
07/05 09:30 25 80 18.42 21.3 17 30 1014.6 0 39.7 39.0 74.5 197.2 216.1 750.5
07/05 09:20 24.9 80 18.31 21.2 24 28 1014.6 0 39.5 38.8 74.1 196.1 214.7 745.7
07/05 09:10 24.8 81 18.44 21.3 19 24 1014.5 0 39.8 39.1 74.8 197.9 217.0 753.5
07/05 09:00 25 82 18.88 21.7 11 17 1014.3 0 40.7 39.9 76.7 202.9 223.1 774.8
07/05 08:50 24.2 82 18.04 20.9 11 13 1014.2 0 39.0 38.6 73.5 194.4 212.5 738.0
07/05 08:40 23.9 84 18.17 21 7 9 1014.1 0 39.3 39.0 74.4 196.8 215.4 747.8
07/05 08:30 23.8 85 18.28 21.1 11 15 1014.2 0 39.5 39.3 75.1 198.5 217.4 754.7
07/05 08:20 23.2 87 18.09 20.9 11 13 1014 0 39.2 39.2 74.7 197.6 216.1 750.4
07/05 08:10 22.8 87 17.68 20.5 9 9 1014 0 38.4 38.6 73.2 193.5 210.9 732.3
07/05 08:00 22.3 90 17.77 20.6 7 13 1014 0 38.6 39.0 74.1 195.9 213.8 742.0
07/05 07:50 22 91 17.66 20.5 9 9 1013.9 0 38.4 38.9 73.9 195.3 212.9 739.0
07/05 07:40 21.3 93 17.33 20.1 9 11 1013.7 0 37.8 38.6 73.0 192.9 209.7 727.8
07/05 07:30 20.8 94 17.02 19.8 6 9 1013.8 0 37.1 38.3 72.0 190.2 206.3 715.8
07/05 07:20 20.6 96 17.18 19.9 7 9 1013.7 0 37.5 38.7 72.9 192.7 209.3 726.4
07/05 07:10 20.1 96 16.69 19.4 9 9 1013.6 0 36.5 37.9 71.0 187.7 203.0 704.4
07/05 07:00 19.9 97 16.66 19.4 6 9 1013.6 0 36.5 38.0 71.1 187.9 203.1 704.6
07/05 06:50 19.9 97 16.66 19.4 7 9 1013.4 0 36.5 38.0 71.1 187.8 203.1 704.5
07/05 06:40 19.6 99 16.71 19.4 7 11 1013.3 0 36.6 38.2 71.6 189.2 204.7 710.0
07/05 06:30 19.3 98 16.25 19 2 7 1013.2 0 35.6 37.4 69.7 184.1 198.3 687.7
07/05 06:20 19.5 99 16.61 19.3 7 7 1013 0 36.4 38.0 71.2 188.1 203.3 705.3
07/05 06:10 19.5 99 16.61 19.3 7 9 1012.9 0 36.4 38.0 71.2 188.1 203.3 705.3
07/05 06:00 19.3 100 16.59 19.3 6 9 1013 0 36.4 38.1 71.3 188.4 203.6 706.1
07/05 05:50 19.4 100 16.68 19.4 6 7 1012.8 0 36.6 38.2 71.6 189.2 204.7 710.0
07/05 05:40 19.2 100 16.49 19.2 9 9 1012.8 0 36.2 37.9 70.9 187.3 202.2 701.5
07/05 05:30 19 100 16.29 19 0 0 1012.8 0 35.8 37.6 70.1 185.2 199.6 692.4
07/05 05:20 19.2 100 16.49 19.2 0 0 1012.7 0 36.2 37.9 70.9 187.3 202.2 701.4
07/05 05:10 19.4 99 16.52 19.2 0 0 1012.6 0 36.2 37.9 70.8 187.2 202.1 701.2
07/05 05:00 19.3 99 16.42 19.1 0 0 1012.7 0 36.0 37.7 70.4 186.2 200.8 696.7
07/05 04:50 19.4 99 16.52 19.2 0 0 1012.5 0 36.2 37.9 70.8 187.1 202.1 701.1
07/05 04:40 19.3 98 16.25 19 6 7 1012.5 0 35.6 37.4 69.6 184.0 198.2 687.3
07/05 04:30 19.6 97 16.37 19.1 6 7 1012.6 0 35.9 37.5 69.9 184.8 199.2 691.1
07/05 04:20 19.8 98 16.74 19.5 6 7 1012.5 0 36.6 38.1 71.5 189.0 204.5 709.4
07/05 04:10 19.7 98 16.64 19.4 7 9 1012.5 0 36.4 38.0 71.1 187.9 203.2 704.8
07/05 04:00 19.7 97 16.47 19.2 0 0 1012.7 0 36.1 37.7 70.3 185.8 200.5 695.7
07/05 03:50 19.9 96 16.49 19.2 0 0 1012.6 0 36.1 37.6 70.2 185.5 200.3 694.9
07/05 03:40 20.2 96 16.78 19.5 6 6 1012.6 0 36.7 38.0 71.3 188.5 204.0 707.8
07/05 03:30 20.3 96 16.88 19.6 6 7 1012.7 0 36.9 38.2 71.7 189.5 205.3 712.4
07/05 03:20 20.2 98 17.13 19.9 6 7 1012.7 0 37.4 38.7 73.0 193.0 209.5 727.0
07/05 03:10 19.9 96 16.49 19.2 2 6 1012.7 0 36.1 37.6 70.2 185.6 200.3 694.9
07/05 03:00 20.3 96 16.88 19.6 6 9 1012.8 0 36.9 38.2 71.7 189.5 205.3 712.4
07/05 02:50 20.3 97 17.06 19.8 7 9 1012.7 0 37.3 38.5 72.6 191.8 208.1 722.2
07/05 02:40 20.3 97 17.06 19.8 6 6 1012.8 0 37.3 38.5 72.6 191.8 208.2 722.2
07/05 02:30 20.5 96 17.08 19.8 0 0 1012.9 0 37.3 38.5 72.5 191.6 207.9 721.5
07/05 02:20 20.6 96 17.18 19.9 0 0 1012.8 0 37.5 38.6 72.9 192.6 209.2 725.9
07/05 02:10 20.6 96 17.18 19.9 0 4 1013 0 37.5 38.6 72.9 192.6 209.2 726.0
07/05 02:00 20.6 95 17 19.8 6 9 1013.2 0 37.1 38.3 72.0 190.4 206.4 716.3
07/05 01:50 20.8 95 17.2 20 9 9 1013.2 0 37.5 38.6 72.8 192.4 209.0 725.3
07/05 01:40 20.9 94 17.12 19.9 7 9 1013.3 0 37.4 38.4 72.3 191.2 207.5 720.0
07/05 01:30 20.9 95 17.3 20.1 7 11 1013.4 0 37.7 38.7 73.2 193.5 210.3 729.9
07/05 01:20 20.8 97 17.56 20.3 9 11 1013.3 0 38.3 39.3 74.5 197.0 214.7 745.0
07/05 01:10 20 99 17.11 19.8 7 9 1013.4 0 37.4 38.8 73.1 193.3 209.9 728.2
07/05 01:00 20.2 99 17.31 20 7 9 1013.6 0 37.8 39.1 73.9 195.4 212.5 737.3
07/05 00:50 20.1 99 17.21 19.9 7 9 1013.6 0 37.6 38.9 73.5 194.4 211.2 732.8
07/05 00:40 20.2 98 17.13 19.9 6 6 1013.6 0 37.4 38.7 73.1 193.1 209.7 727.4
07/05 00:30 20.4 97 17.16 19.9 2 7 1013.8 0 37.5 38.7 73.0 193.0 209.6 727.2
07/05 00:20 20.8 98 17.74 20.5 0 0 1013.7 0 38.7 39.6 75.4 199.4 217.6 755.2
07/05 00:10 20.7 97 17.46 20.2 0 0 1013.8 0 38.1 39.2 74.2 196.1 213.5 740.8
07/05 00:00 20.9 96 17.48 20.2 0 0 1013.9 0 38.1 39.1 74.1 195.8 213.2 740.0
06/05 23:50 21.3 96 17.89 20.6 0 0 1013.9 0 39.0 39.7 75.7 200.1 218.5 758.5
06/05 23:40 21.3 95 17.71 20.5 4 6 1013.9 0 38.6 39.4 74.8 197.8 215.7 748.6
06/05 23:30 21.6 93 17.64 20.4 6 9 1014.1 0 38.4 39.1 74.2 196.1 213.8 741.9
06/05 23:20 21.8 93 17.84 20.6 9 9 1014 0 38.8 39.4 74.9 198.1 216.3 750.8
06/05 23:10 21.6 93 17.64 20.4 7 9 1014.1 0 38.4 39.1 74.2 196.1 213.8 741.9
06/05 23:00 21.7 93 17.74 20.5 7 11 1014.1 0 38.6 39.2 74.6 197.1 215.0 746.4
06/05 22:50 21.9 93 17.94 20.7 7 9 1014.1 0 39.0 39.5 75.3 199.2 217.6 755.3
06/05 22:40 21.9 93 17.94 20.7 7 11 1014.2 0 39.0 39.5 75.3 199.2 217.6 755.4
06/05 22:30 22 93 18.05 20.8 9 9 1014.2 0 39.2 39.7 75.8 200.3 219.0 760.4
06/05 22:20 22.3 92 18.16 20.9 7 7 1014.2 0 39.4 39.8 76.0 200.9 219.9 763.4
06/05 22:10 22.6 91 18.28 21.1 9 9 1014.3 0 39.7 39.9 76.3 201.7 220.9 766.9
06/05 22:00 22.6 92 18.48 21.2 9 13 1014.5 0 40.1 40.3 77.2 204.3 224.1 778.0
06/05 21:50 22.6 91 18.28 21.1 7 7 1014.3 0 39.7 39.9 76.3 201.7 220.9 766.9
06/05 21:40 22.8 92 18.69 21.4 6 7 1014.3 0 40.5 40.6 78.0 206.4 226.8 787.3
06/05 21:30 22.8 92 18.69 21.4 9 11 1014.4 0 40.5 40.6 78.0 206.4 226.8 787.4
06/05 21:20 23.1 91 18.81 21.5 9 11 1014.3 0 40.7 40.6 78.3 207.1 227.7 790.8
06/05 21:10 23.3 89 18.61 21.4 15 17 1014.3 0 40.3 40.2 77.1 204.0 224.0 777.7
06/05 21:00 23.7 88 18.82 21.6 11 15 1014.5 0 40.7 40.4 77.7 205.6 226.1 785.2
06/05 20:50 23.6 88 18.72 21.5 13 15 1014.3 0 40.5 40.2 77.4 204.6 224.8 780.6
06/05 20:40 23.7 88 18.82 21.6 11 13 1014.3 0 40.7 40.4 77.7 205.6 226.1 785.0
06/05 20:30 23.6 88 18.72 21.5 9 15 1014.3 0 40.5 40.2 77.4 204.6 224.8 780.6
06/05 20:20 23.7 87 18.61 21.4 9 13 1014.1 0 40.3 40.0 76.7 202.9 222.8 773.5
06/05 20:10 23.7 87 18.61 21.4 9 11 1014 0 40.3 40.0 76.7 202.9 222.7 773.5
06/05 20:00 23.7 86 18.39 21.2 9 15 1014 0 39.8 39.5 75.7 200.1 219.3 761.6
06/05 19:50 23.9 85 18.39 21.2 9 11 1013.7 0 39.8 39.4 75.4 199.5 218.7 759.4
06/05 19:40 24.1 84 18.38 21.2 6 7 1013.6 0 39.7 39.3 75.2 198.9 217.9 756.8
06/05 19:30 24.4 83 18.47 21.3 7 13 1013.6 0 39.9 39.3 75.3 199.2 218.4 758.6
06/05 19:20 24.4 84 18.69 21.5 6 6 1013.4 0 40.4 39.7 76.3 201.9 221.8 770.3
06/05 19:10 24.5 83 18.58 21.4 7 9 1013.2 0 40.1 39.5 75.7 200.2 219.8 763.3
06/05 19:00 24.6 83 18.68 21.5 9 13 1013.2 0 40.3 39.6 76.1 201.2 221.0 767.6
06/05 18:50 24.1 87 19.03 21.8 7 9 1012.9 0 41.1 40.5 78.2 207.0 227.9 791.5
06/05 18:40 24.3 86 19.03 21.8 0 6 1012.8 0 41.1 40.4 78.0 206.4 227.3 789.4
06/05 18:30 24.5 85 19.02 21.8 9 15 1012.6 0 41.1 40.3 77.8 205.7 226.5 786.7
06/05 18:20 24.7 84 19.01 21.8 9 9 1012.4 0 41.0 40.2 77.5 205.0 225.7 783.9

Last Refresh: 07-May-2026 10:31:30

Bureau of Meteorology